Temperatur und Luftfeuchte: Die letzten 100 Werte

Nummer Datum Zeit Sensor Temp Celsius Gef├╝hlte Temp Luftfeuchte in %
12878 2019-08-18 13:50:28 ESP12E-S1 26.80 30.26 88.30
12877 2019-08-18 13:22:04 ESP12E-S1 25.70 27.40 96.40
12876 2019-08-18 12:53:32 ESP12E-S1 24.60 25.72 99.90
12875 2019-08-18 12:24:20 ESP12E-S1 22.40 23.30 99.90
12874 2019-08-18 11:55:56 ESP12E-S1 21.10 21.87 99.90
12873 2019-08-18 11:27:29 ESP12E-S1 19.50 20.11 99.90
12872 2019-08-18 10:59:11 ESP12E-S1 19.30 19.89 99.90
12871 2019-08-18 10:30:49 ESP12E-S1 18.60 19.12 99.90
12870 2019-08-18 10:02:30 ESP12E-S1 18.50 19.01 99.90
12869 2019-08-18 09:34:08 ESP12E-S1 18.00 18.46 99.90
12868 2019-08-18 09:05:50 ESP12E-S1 17.90 18.35 99.90
12867 2019-08-18 08:37:33 ESP12E-S1 17.80 18.24 99.90
12866 2019-08-18 08:09:13 ESP12E-S1 17.40 17.80 99.90
12865 2019-08-18 07:40:56 ESP12E-S1 17.20 17.58 99.90
12864 2019-08-18 07:12:38 ESP12E-S1 17.20 17.58 99.90
12863 2019-08-18 06:44:21 ESP12E-S1 17.10 17.47 99.90
12862 2019-08-18 06:16:03 ESP12E-S1 17.10 17.47 99.90
12861 2019-08-18 05:47:46 ESP12E-S1 17.10 17.47 99.90
12860 2019-08-18 05:19:27 ESP12E-S1 17.20 17.58 99.90
12859 2019-08-18 04:51:12 ESP12E-S1 17.20 17.58 99.90
12858 2019-08-18 04:22:55 ESP12E-S1 17.20 17.58 99.90
12857 2019-08-18 03:54:39 ESP12E-S1 17.30 17.69 99.90
12856 2019-08-18 03:26:22 ESP12E-S1 17.30 17.69 99.90
12855 2019-08-18 02:58:07 ESP12E-S1 17.50 17.91 99.90
12854 2019-08-18 02:29:50 ESP12E-S1 17.40 17.80 99.90
12853 2019-08-18 02:01:32 ESP12E-S1 17.40 17.80 99.90
12852 2019-08-18 01:33:16 ESP12E-S1 17.50 17.91 99.90
12851 2019-08-18 01:04:59 ESP12E-S1 17.50 17.91 99.90
12850 2019-08-18 00:36:44 ESP12E-S1 17.60 18.02 99.90
12849 2019-08-18 00:08:28 ESP12E-S1 17.70 18.13 99.90
12848 2019-08-17 23:40:10 ESP12E-S1 17.70 18.13 99.90
12847 2019-08-17 23:11:53 ESP12E-S1 17.80 18.24 99.90
12846 2019-08-17 22:43:36 ESP12E-S1 17.90 18.35 99.90
12845 2019-08-17 22:15:21 ESP12E-S1 18.10 18.57 99.90
12844 2019-08-17 21:47:05 ESP12E-S1 18.20 18.68 99.90
12843 2019-08-17 21:18:48 ESP12E-S1 18.30 18.79 99.90
12842 2019-08-17 20:50:33 ESP12E-S1 18.50 19.01 99.90
12841 2019-08-17 20:22:15 ESP12E-S1 18.70 19.23 99.90
12840 2019-08-17 19:53:59 ESP12E-S1 18.60 19.12 99.90
12839 2019-08-17 19:25:42 ESP12E-S1 18.80 19.34 99.90
12838 2019-08-17 18:57:27 ESP12E-S1 19.20 19.75 98.60
12837 2019-08-17 18:29:12 ESP12E-S1 19.40 19.90 95.80
12836 2019-08-17 18:00:54 ESP12E-S1 19.60 20.11 95.60
12835 2019-08-17 17:32:37 ESP12E-S1 19.60 20.10 95.00
12834 2019-08-17 17:04:20 ESP12E-S1 19.50 19.99 95.00
12833 2019-08-17 16:36:03 ESP12E-S1 19.60 20.09 94.80
12832 2019-08-17 16:07:47 ESP12E-S1 19.80 20.30 94.50
12831 2019-08-17 15:39:31 ESP12E-S1 20.00 20.51 93.90
12830 2019-08-17 15:11:14 ESP12E-S1 20.20 20.87 99.50
12829 2019-08-17 14:42:59 ESP12E-S1 20.20 20.84 98.40
12828 2019-08-17 14:14:43 ESP12E-S1 20.30 20.92 96.90
12827 2019-08-17 13:46:22 ESP12E-S1 19.90 20.54 99.20
12826 2019-08-17 13:18:01 ESP12E-S1 19.30 19.89 99.90
12825 2019-08-17 12:49:45 ESP12E-S1 19.10 19.67 99.90
12824 2019-08-17 12:21:26 ESP12E-S1 18.70 19.23 99.90
12823 2019-08-17 11:53:10 ESP12E-S1 18.50 19.01 99.90
12822 2019-08-17 11:24:53 ESP12E-S1 18.30 18.79 99.90
12821 2019-08-17 10:56:35 ESP12E-S1 18.10 18.57 99.90
12820 2019-08-17 10:28:17 ESP12E-S1 17.70 18.13 99.90
12819 2019-08-17 10:00:02 ESP12E-S1 17.70 18.13 99.90
12818 2019-08-17 09:31:47 ESP12E-S1 17.80 18.24 99.90
12817 2019-08-17 09:03:32 ESP12E-S1 17.70 18.10 98.60
12816 2019-08-17 08:35:17 ESP12E-S1 17.70 18.04 96.20
12815 2019-08-17 08:07:02 ESP12E-S1 17.70 18.02 95.50
12814 2019-08-17 07:38:45 ESP12E-S1 17.70 18.02 95.40
12813 2019-08-17 07:10:28 ESP12E-S1 17.60 17.94 96.70
12812 2019-08-17 06:42:12 ESP12E-S1 17.70 17.99 94.20
12811 2019-08-17 06:13:56 ESP12E-S1 17.70 17.95 92.70
12810 2019-08-17 05:45:39 ESP12E-S1 17.80 18.03 91.80
12809 2019-08-17 05:17:21 ESP12E-S1 17.80 18.02 91.50
12808 2019-08-17 04:49:05 ESP12E-S1 17.80 18.03 91.80
12807 2019-08-17 04:20:48 ESP12E-S1 17.80 18.02 91.20
12806 2019-08-17 03:52:31 ESP12E-S1 17.80 18.02 91.40
12805 2019-08-17 03:24:14 ESP12E-S1 17.90 18.11 90.60
12804 2019-08-17 02:55:58 ESP12E-S1 18.00 18.19 89.40
12803 2019-08-17 02:27:42 ESP12E-S1 18.10 18.22 86.40
12802 2019-08-17 01:59:25 ESP12E-S1 18.10 18.17 84.60
12801 2019-08-17 01:31:09 ESP12E-S1 18.20 18.23 82.40
12800 2019-08-17 01:02:52 ESP12E-S1 18.20 18.15 79.30
12799 2019-08-17 00:34:37 ESP12E-S1 18.30 18.22 77.80
12798 2019-08-17 00:06:30 ESP12E-S1 18.50 18.39 76.10
12797 2019-08-16 23:38:11 ESP12E-S1 18.70 18.57 74.60
12796 2019-08-16 23:09:56 ESP12E-S1 18.90 18.70 70.90
12795 2019-08-16 22:41:41 ESP12E-S1 19.00 18.76 69.00
12794 2019-08-16 22:13:35 ESP12E-S1 19.20 18.92 67.00
12793 2019-08-16 21:45:20 ESP12E-S1 19.60 19.29 64.00
12792 2019-08-16 21:17:06 ESP12E-S1 20.10 19.84 64.00
12791 2019-08-16 20:48:53 ESP12E-S1 20.70 20.44 61.70
12790 2019-08-16 20:20:40 ESP12E-S1 21.50 21.23 58.40
12789 2019-08-16 19:52:27 ESP12E-S1 22.30 22.01 54.40
12788 2019-08-16 19:24:12 ESP12E-S1 22.70 22.43 53.70
12787 2019-08-16 18:55:56 ESP12E-S1 23.00 22.77 54.20
12786 2019-08-16 18:27:40 ESP12E-S1 23.30 23.10 54.20
12785 2019-08-16 17:59:23 ESP12E-S1 23.60 23.46 55.20
12784 2019-08-16 17:31:06 ESP12E-S1 23.80 23.66 54.60
12783 2019-08-16 17:02:49 ESP12E-S1 23.80 23.67 55.10
12782 2019-08-16 16:34:33 ESP12E-S1 24.20 24.09 54.20
12781 2019-08-16 16:06:19 ESP12E-S1 24.40 24.32 54.70
12780 2019-08-16 15:38:01 ESP12E-S1 24.30 24.24 55.60
12779 2019-08-16 15:09:40 ESP12E-S1 24.40 24.40 57.70